Airfield :
LOGIN :

Register | Disclaimer

   EN    FR    IT 

 










Legend :    VFR   Marginal VFR   IFR   Intensive IFR   Very Intensive IFR
Visi :
Ceiling :
>= 8 km
>= 3000ft
5 to 8 km
1000 to 3000 ft
1500m to 5 km
500 to 1000 ft
800 to 1500m
200 to 500 ft
< 800m
< 200 ft
Symbols :   Thunderstorms  Fog  Heavy snow  Heavy precipitations  Wind > 20 kt
SIGMETs :     Misc.  Thunderstorms  Icing  Turbulence  Mountain Waves  Volcanic Ashes






- Airport Elevation : 245 ft
- IATA code : BIQ


LFBZ - Biarritz

CURRENT METAR :
  • 190930Z AUTO 27009KT 9999 BKN006/// OVC078/// ///CB 20/19 Q1013 TEMPO 4000 -SHRA BKN015 BKN050TCU FEW060CB

EXPIRED METARs :
  • 190900Z AUTO 26009KT 220V280 9999 BKN005/// BKN068/// OVC082/// ///TCU 20/19 Q1013 TEMPO 4000 -SHRA BKN015 BKN050TCU FEW060CB
  • 190830Z AUTO VRB02KT 9999 FEW007/// BKN070/// OVC088/// ///CB 20/19 Q1013 TEMPO 4000 -SHRA
  • 190800Z AUTO VRB02KT 9999 BKN070/// OVC088/// ///TCU 20/19 Q1013 TEMPO 4000 -SHRA BKN015 BKN050TCU FEW060CB
  • 190730Z AUTO VRB03KT 9999 SCT070/// BKN082/// BKN110/// ///TCU 20/19 Q1013 TEMPO 4000 -SHRA BKN015 BKN050TCU FEW060CB
  • 190700Z AUTO VRB02KT 9999 FEW006 OVC086 19/18 Q1013 TEMPO 4000 -SHRA BKN015 BKN050TCU FEW060CB

TAF AMD TAF LFBZ
Valid from the 19 at 09:00 until the 20 at 06:00 UTC


190927Z 1909/2006 VRB03KT 9999 BKN030 BKN050
TEMPO 1909/1920 4000 -SHRA BKN005 BKN050TCU FEW060CB
PROB40
TEMPO 1912/1917 VRB15G25KT 2000 TSRA BKN005 BKN050CB



MET'MAP, your aeronautical weather chart ! - Copyright ORBIFLY December 2007 - Disclaimer

ORBIFLY MET'MAP TEAM :

Programming & Development : Alexandra Zaïnal
Concept & original design : Baudouin d'Aumeries
Assistance for programming : Marc-Olivier Méhu
Technical & hardware support : Manuel Goepfert

Contact : metmap@orbifly.com




SOURCES & CREDITS :

   NOAA